Murray, KY

2:13 AM CDT on April 25, 2017 (GMT -0500)
Kyle-Oakley

Weather History for KCEY - February, 2014

Change the Weather History Date:

Tuesday, February 11, 2014

  Actual Average (KPAH) Record (KPAH)
Temperature  
Mean Temperature 16 °F -  
Max Temperature 24 °F 46 °F 73 °F (1999)
Min Temperature 8 °F 27 °F 2 °F (2011)
Degree Days  
Heating Degree Days 49    
Moisture  
Dew Point 8 °F    
Average Humidity 72    
Maximum Humidity 85    
Minimum Humidity 54    
Precipitation  
Precipitation 0.00 in - - ()
Sea Level Pressure  
Sea Level Pressure 30.38 in    
Wind  
Wind Speed 9 mph (NNE)    
Max Wind Speed 14 mph    
Max Gust Speed 16 mph    
Visibility 10 miles    
Events      
Averages and records for this station are not official NWS values.
T = Trace of Precipitation, MM = Missing Value Source: NWS Daily Summary

Daily Weather History Graph

Daily Weather History Graph

Search for Another Location

Airport or City:

Trip Planner

Search our weather history database for the weather conditions in past years. The results will help you decide how hot, cold, wet, or windy it might be!

Date:

Astronomy

Feb. 11, 2014 Rise Set
Actual Time 6:45 AM CST 5:29 PM CST
Civil Twilight 6:19 AM CST 5:56 PM CST
Nautical Twilight 5:48 AM CST 6:27 PM CST
Astronomical Twilight 5:18 AM CST 6:57 PM CST
Moon 2:52 PM CST (2/11) 4:20 AM CST (2/11)
Length of Visible Light 11h 37m
Length of Day
10h 43m
Waxing Gibbous, 91% of the Moon is Illuminated
Feb 11
Waxing Gibbous
Feb 14
Full
Feb 22
Last Quarter
Mar 1
New
Mar 8
First Quarter

Hourly Weather History & Observations

Time (CST) Temp. Windchill Dew Point Humidity Pressure Visibility Wind Dir Wind Speed Gust Speed Precip Events Conditions
12:15 AM 10.4 °F -4.1 °F 6.8 °F 85% 30.37 in 10.0 mi NNE 11.5 mph - N/A   Clear
12:35 AM 10.4 °F -2.4 °F 5.0 °F 79% 30.37 in 10.0 mi NNE 9.2 mph - N/A   Clear
12:55 AM 10.4 °F -4.1 °F 5.0 °F 79% 30.38 in 10.0 mi NNE 11.5 mph - N/A   Clear
1:15 AM 10.4 °F -1.5 °F 5.0 °F 79% 30.39 in 10.0 mi North 8.1 mph - N/A   Clear
1:35 AM 10.4 °F -1.5 °F 5.0 °F 79% 30.40 in 10.0 mi North 8.1 mph - N/A   Clear
1:55 AM 8.6 °F -3.7 °F 5.0 °F 85% 30.39 in 10.0 mi NNE 8.1 mph - N/A   Clear
2:15 AM 8.6 °F -1.3 °F 5.0 °F 85% 30.41 in 10.0 mi North 5.8 mph - N/A   Clear
2:35 AM 8.6 °F -3.7 °F 3.2 °F 79% 30.41 in 10.0 mi North 8.1 mph - N/A   Clear
2:55 AM 8.6 °F -3.7 °F 3.2 °F 79% 30.41 in 10.0 mi North 8.1 mph - N/A   Clear
3:15 AM 8.6 °F -4.7 °F 3.2 °F 79% 30.41 in 10.0 mi NNE 9.2 mph - N/A   Clear
3:35 AM 8.6 °F -3.7 °F 1.4 °F 73% 30.40 in 10.0 mi NNE 8.1 mph - N/A   Clear
3:55 AM 8.6 °F -3.7 °F 3.2 °F 79% 30.40 in 10.0 mi NNE 8.1 mph - N/A   Clear
4:15 AM 8.6 °F -3.7 °F 3.2 °F 79% 30.40 in 10.0 mi NNE 8.1 mph - N/A   Clear
4:35 AM 8.6 °F -2.6 °F 3.2 °F 79% 30.40 in 10.0 mi NNE 6.9 mph - N/A   Clear
4:55 AM 8.6 °F -3.7 °F 3.2 °F 79% 30.40 in 10.0 mi NNE 8.1 mph - N/A   Partly Cloudy
5:15 AM 8.6 °F -3.7 °F 1.4 °F 73% 30.41 in 10.0 mi North 8.1 mph - N/A   Partly Cloudy
5:35 AM 8.6 °F -4.7 °F 3.2 °F 79% 30.42 in 10.0 mi NNE 9.2 mph - N/A   Scattered Clouds
5:55 AM 8.6 °F -6.3 °F 1.4 °F 73% 30.42 in 10.0 mi NNE 11.5 mph - N/A   Scattered Clouds
6:15 AM 8.6 °F -4.7 °F 1.4 °F 73% 30.43 in 10.0 mi NNE 9.2 mph - N/A   Scattered Clouds
6:35 AM 8.6 °F -3.7 °F 1.4 °F 73% 30.43 in 10.0 mi NE 8.1 mph - N/A   Mostly Cloudy
6:55 AM 8.6 °F -5.5 °F 1.4 °F 73% 30.44 in 10.0 mi NNE 10.4 mph - N/A   Partly Cloudy
7:15 AM 8.6 °F -5.5 °F 1.4 °F 73% 30.44 in 10.0 mi NNE 10.4 mph - N/A   Clear
7:35 AM 8.6 °F -5.5 °F 3.2 °F 79% 30.44 in 10.0 mi NNE 10.4 mph - N/A   Clear
7:55 AM 8.6 °F -3.7 °F 1.4 °F 73% 30.45 in 10.0 mi NNE 8.1 mph - N/A   Clear
8:15 AM 8.6 °F -5.5 °F 3.2 °F 79% 30.45 in 10.0 mi NNE 10.4 mph - N/A   Clear
8:35 AM 8.6 °F -4.7 °F 3.2 °F 79% 30.45 in 10.0 mi NE 9.2 mph - N/A   Clear
8:55 AM 10.4 °F -4.8 °F 5.0 °F 79% 30.45 in 10.0 mi NNE 12.7 mph - N/A   Clear
9:15 AM 10.4 °F -4.8 °F 5.0 °F 79% 30.45 in 10.0 mi NNE 12.7 mph - N/A   Clear
9:35 AM 12.2 °F -1.8 °F 5.0 °F 73% 30.45 in 10.0 mi NNE 11.5 mph - N/A   Clear
9:55 AM 12.2 °F -1.8 °F 5.0 °F 73% 30.45 in 10.0 mi NNE 11.5 mph - N/A   Clear
10:15 AM 14.0 °F 0.5 °F 5.0 °F 67% 30.44 in 10.0 mi NNE 11.5 mph - N/A   Clear
10:35 AM 15.8 °F 2.7 °F 6.8 °F 68% 30.44 in 10.0 mi NNE 11.5 mph - N/A   Clear
10:55 AM 15.8 °F 3.4 °F 6.8 °F 68% 30.45 in 10.0 mi NNE 10.4 mph - N/A   Clear
11:15 AM 17.6 °F 5.7 °F 6.8 °F 63% 30.43 in 10.0 mi NNE 10.4 mph - N/A   Clear
11:35 AM 17.6 °F 7.3 °F 6.8 °F 63% 30.43 in 10.0 mi NNE 8.1 mph - N/A   Clear
11:55 AM 19.4 °F 10.4 °F 6.8 °F 58% 30.43 in 10.0 mi NNE 6.9 mph - N/A   Clear
12:15 PM 19.4 °F 7.9 °F 8.6 °F 63% 30.41 in 10.0 mi NE 10.4 mph - N/A   Clear
12:35 PM 21.2 °F 10.1 °F 8.6 °F 58% 30.40 in 10.0 mi NE 10.4 mph - N/A   Clear
12:55 PM 23.0 °F 11.7 °F 8.6 °F 54% 30.38 in 10.0 mi NNE 11.5 mph - N/A   Clear
1:15 PM 23.0 °F 11.7 °F 8.6 °F 54% 30.38 in 10.0 mi NNE 11.5 mph - N/A   Clear
1:35 PM 23.0 °F 12.4 °F 8.6 °F 54% 30.37 in 10.0 mi NE 10.4 mph 16.1 mph N/A   Clear
1:55 PM 23.0 °F 11.7 °F 8.6 °F 54% 30.37 in 10.0 mi NE 11.5 mph - N/A   Clear
2:15 PM 23.0 °F 12.4 °F 10.4 °F 59% 30.36 in 10.0 mi NNE 10.4 mph - N/A   Clear
2:35 PM 23.0 °F 11.1 °F 10.4 °F 59% 30.36 in 10.0 mi NNE 12.7 mph - N/A   Clear
2:55 PM 24.8 °F 15.3 °F 10.4 °F 54% 30.36 in 10.0 mi NNE 9.2 mph - N/A   Clear
3:15 PM 24.8 °F 14.0 °F 12.2 °F 59% 30.35 in 10.0 mi NNE 11.5 mph - N/A   Clear
3:35 PM 24.8 °F 14.6 °F 10.4 °F 54% 30.35 in 10.0 mi NNE 10.4 mph - N/A   Clear
3:55 PM 24.8 °F 12.9 °F 12.2 °F 59% 30.34 in 10.0 mi NNE 13.8 mph - N/A   Clear
4:15 PM 24.8 °F 13.4 °F 12.2 °F 59% 30.34 in 10.0 mi NE 12.7 mph - N/A   Clear
4:35 PM 23.0 °F 11.1 °F 12.2 °F 63% 30.33 in 10.0 mi NNE 12.7 mph - N/A   Clear
4:55 PM 23.0 °F 11.1 °F 12.2 °F 63% 30.33 in 10.0 mi NE 12.7 mph - N/A   Clear
5:15 PM 23.0 °F 13.1 °F 12.2 °F 63% 30.32 in 10.0 mi NE 9.2 mph - N/A   Clear
5:35 PM 23.0 °F 13.1 °F 12.2 °F 63% 30.32 in 10.0 mi NE 9.2 mph - N/A   Clear
5:55 PM 21.2 °F 10.9 °F 12.2 °F 68% 30.31 in 10.0 mi NE 9.2 mph - N/A   Clear
6:15 PM 21.2 °F 11.7 °F 14.0 °F 74% 30.32 in 10.0 mi NE 8.1 mph - N/A   Clear
6:35 PM 19.4 °F 9.5 °F 14.0 °F 80% 30.33 in 10.0 mi NE 8.1 mph - N/A   Clear
6:55 PM 19.4 °F 8.6 °F 14.0 °F 80% 30.32 in 10.0 mi ENE 9.2 mph - N/A   Clear
7:15 PM 19.4 °F 10.4 °F 14.0 °F 80% 30.32 in 10.0 mi ENE 6.9 mph - N/A   Clear
7:35 PM 19.4 °F 9.5 °F 14.0 °F 80% 30.33 in 10.0 mi NE 8.1 mph - N/A   Clear
7:55 PM 19.4 °F 9.5 °F 14.0 °F 80% 30.33 in 10.0 mi NE 8.1 mph - N/A   Clear
8:15 PM 19.4 °F 10.4 °F 14.0 °F 80% 30.32 in 10.0 mi NE 6.9 mph - N/A   Clear
8:35 PM 19.4 °F 9.5 °F 14.0 °F 80% 30.32 in 10.0 mi NE 8.1 mph - N/A   Clear
8:55 PM 19.4 °F 9.5 °F 14.0 °F 80% 30.32 in 10.0 mi NE 8.1 mph - N/A   Clear
9:15 PM 19.4 °F 10.4 °F 14.0 °F 80% 30.32 in 10.0 mi ENE 6.9 mph - N/A   Clear
9:35 PM 19.4 °F 9.5 °F 12.2 °F 74% 30.33 in 10.0 mi ENE 8.1 mph - N/A   Clear
9:55 PM 19.4 °F 10.4 °F 12.2 °F 74% 30.32 in 10.0 mi ENE 6.9 mph - N/A   Clear
10:15 PM 17.6 °F 8.2 °F 12.2 °F 79% 30.33 in 10.0 mi NE 6.9 mph - N/A   Clear
10:35 PM 17.6 °F 8.2 °F 12.2 °F 79% 30.31 in 10.0 mi NE 6.9 mph - N/A   Clear
10:55 PM 17.6 °F 9.3 °F 12.2 °F 79% 30.31 in 10.0 mi NE 5.8 mph - N/A   Clear
11:15 PM 17.6 °F 8.2 °F 12.2 °F 79% 30.30 in 10.0 mi NE 6.9 mph - N/A   Clear
11:35 PM 17.6 °F 8.2 °F 12.2 °F 79% 30.30 in 10.0 mi NE 6.9 mph - N/A   Clear
11:55 PM 17.6 °F 8.2 °F 12.2 °F 79% 30.28 in 10.0 mi NE 6.9 mph - N/A   Clear